NFC9334 EPKT-ESGG
Flight info
| Callsign | NFC9334 |
|---|---|
| Flight time | 1h 24m |
| Altitude | 38000 |
| Route | LUMVE2M LUMVE L619 NUDRO DCT XIDNA DCT KOLOB DCT KD DCT NILEN L617 ARQUS ARQUS1S |
| Aircraft | B738/M-SDE2E3FGHIRWXY/LB1 |
Departure
| Time | 2026-05-01 13:50 |
|---|---|
| Airport | Katowice Wojciech Korfanty International Airport (EPKT) |
Arrival
| Time | 2026-05-01 15:14 |
|---|---|
| Airport | Göteborg Landvetter Airport (ESGG) |
| Time | Latitude | Longitude | Altitude | Speed | Heading |
|---|---|---|---|---|---|
| 2026-05-01 13:21 | 50.47156 | 19.09644 | 1005 ft | 0 kts | 185° |
| 2026-05-01 13:42 | 50.47159 | 19.09644 | 981 ft | 2 kts | 185° |
| 2026-05-01 13:42 | 50.47175 | 19.09646 | 981 ft | 2 kts | 185° |
| 2026-05-01 13:43 | 50.47191 | 19.09645 | 981 ft | 2 kts | 159° |
| 2026-05-01 13:43 | 50.47204 | 19.09632 | 981 ft | 2 kts | 139° |
| 2026-05-01 13:43 | 50.47216 | 19.09615 | 981 ft | 2 kts | 137° |
| 2026-05-01 13:43 | 50.47227 | 19.09596 | 981 ft | 2 kts | 120° |
| 2026-05-01 13:44 | 50.47232 | 19.09572 | 980 ft | 2 kts | 101° |
| 2026-05-01 13:44 | 50.47233 | 19.09564 | 980 ft | 0 kts | 98° |
| 2026-05-01 13:47 | 50.47234 | 19.09605 | 981 ft | 9 kts | 88° |
| 2026-05-01 13:47 | 50.47236 | 19.09760 | 982 ft | 17 kts | 90° |
| 2026-05-01 13:47 | 50.47237 | 19.09916 | 983 ft | 16 kts | 85° |
| 2026-05-01 13:48 | 50.47264 | 19.10083 | 984 ft | 16 kts | 57° |
| 2026-05-01 13:48 | 50.47330 | 19.10216 | 985 ft | 15 kts | 40° |
| 2026-05-01 13:48 | 50.47393 | 19.10342 | 986 ft | 14 kts | 52° |
| 2026-05-01 13:48 | 50.47461 | 19.10450 | 987 ft | 14 kts | 10° |
| 2026-05-01 13:49 | 50.47553 | 19.10438 | 989 ft | 13 kts | 335° |
| 2026-05-01 13:49 | 50.47596 | 19.10339 | 989 ft | 8 kts | 274° |
| 2026-05-01 13:49 | 50.47598 | 19.10296 | 988 ft | 0 kts | 271° |
| 2026-05-01 13:50 | 50.47599 | 19.10047 | 987 ft | 68 kts | 269° |
| 2026-05-01 13:50 | 50.47611 | 19.08800 | 982 ft | 157 kts | 273° |
| 2026-05-01 13:50 | 50.47573 | 19.06844 | 1670 ft | 185 kts | 269° |
| 2026-05-01 13:50 | 50.47464 | 19.04812 | 2969 ft | 192 kts | 266° |
| 2026-05-01 13:51 | 50.47275 | 19.02710 | 4016 ft | 197 kts | 264° |
| 2026-05-01 13:51 | 50.47133 | 19.00648 | 5001 ft | 179 kts | 272° |
| 2026-05-01 13:51 | 50.47077 | 18.98810 | 5959 ft | 164 kts | 272° |
| 2026-05-01 13:51 | 50.47276 | 18.96991 | 6232 ft | 179 kts | 307° |
| 2026-05-01 13:52 | 50.48021 | 18.95288 | 6487 ft | 201 kts | 308° |
| 2026-05-01 13:52 | 50.48830 | 18.93356 | 6664 ft | 222 kts | 307° |
| 2026-05-01 13:52 | 50.49697 | 18.91198 | 6834 ft | 245 kts | 306° |
| 2026-05-01 13:52 | 50.50618 | 18.88826 | 7097 ft | 267 kts | 305° |
| 2026-05-01 13:53 | 50.51587 | 18.86244 | 7732 ft | 274 kts | 304° |
| 2026-05-01 13:53 | 50.53509 | 18.80955 | 9229 ft | 282 kts | 304° |
| 2026-05-01 13:53 | 50.54473 | 18.78247 | 10008 ft | 286 kts | 304° |
| 2026-05-01 13:54 | 50.55452 | 18.75480 | 10669 ft | 295 kts | 304° |
| 2026-05-01 13:54 | 50.56476 | 18.72582 | 10870 ft | 320 kts | 304° |
| 2026-05-01 13:54 | 50.57593 | 18.69410 | 11079 ft | 342 kts | 304° |
| 2026-05-01 13:54 | 50.58758 | 18.66072 | 11568 ft | 353 kts | 304° |
| 2026-05-01 13:55 | 50.59940 | 18.62660 | 12260 ft | 357 kts | 304° |
| 2026-05-01 13:55 | 50.61133 | 18.59204 | 12996 ft | 361 kts | 304° |
| 2026-05-01 13:55 | 50.62343 | 18.55699 | 13722 ft | 367 kts | 304° |
| 2026-05-01 13:55 | 50.63563 | 18.52161 | 14413 ft | 372 kts | 304° |
| 2026-05-01 13:56 | 50.64810 | 18.48545 | 15122 ft | 375 kts | 304° |
| 2026-05-01 13:56 | 50.66058 | 18.44919 | 15854 ft | 379 kts | 304° |
| 2026-05-01 13:56 | 50.67321 | 18.41246 | 16581 ft | 382 kts | 304° |
| 2026-05-01 13:56 | 50.68595 | 18.37540 | 17284 ft | 386 kts | 304° |
| 2026-05-01 13:57 | 50.69882 | 18.33788 | 17974 ft | 391 kts | 304° |
| 2026-05-01 13:57 | 50.71182 | 18.29994 | 18659 ft | 395 kts | 304° |
| 2026-05-01 13:57 | 50.72489 | 18.26175 | 19255 ft | 399 kts | 304° |
| 2026-05-01 13:57 | 50.73860 | 18.22334 | 19844 ft | 399 kts | 309° |
| 2026-05-01 13:58 | 50.75471 | 18.18758 | 20416 ft | 400 kts | 313° |
| 2026-05-01 13:58 | 50.77172 | 18.15268 | 20987 ft | 403 kts | 314° |
| 2026-05-01 13:58 | 50.78889 | 18.11806 | 21563 ft | 406 kts | 314° |
| 2026-05-01 13:58 | 50.80638 | 18.08267 | 22093 ft | 410 kts | 314° |
| 2026-05-01 13:59 | 50.82395 | 18.04677 | 22622 ft | 415 kts | 314° |
| 2026-05-01 13:59 | 50.84160 | 18.01034 | 23165 ft | 418 kts | 313° |
| 2026-05-01 13:59 | 50.85931 | 17.97353 | 23708 ft | 422 kts | 313° |
| 2026-05-01 13:59 | 50.87713 | 17.93628 | 24174 ft | 425 kts | 313° |
| 2026-05-01 14:00 | 50.89501 | 17.89880 | 24624 ft | 428 kts | 313° |
| 2026-05-01 14:00 | 50.91299 | 17.86101 | 25101 ft | 430 kts | 313° |
| 2026-05-01 14:00 | 50.93101 | 17.82309 | 25567 ft | 432 kts | 313° |
| 2026-05-01 14:00 | 50.94912 | 17.78495 | 26004 ft | 434 kts | 313° |
| 2026-05-01 14:01 | 50.96711 | 17.74703 | 26409 ft | 437 kts | 313° |
| 2026-05-01 14:01 | 50.98521 | 17.70880 | 26800 ft | 439 kts | 313° |
| 2026-05-01 14:01 | 51.00381 | 17.66947 | 27221 ft | 441 kts | 312° |
| 2026-05-01 14:01 | 51.02205 | 17.63084 | 27618 ft | 444 kts | 312° |
| 2026-05-01 14:02 | 51.04057 | 17.59153 | 28004 ft | 446 kts | 312° |
| 2026-05-01 14:02 | 51.05925 | 17.55186 | 28332 ft | 450 kts | 312° |
| 2026-05-01 14:02 | 51.09696 | 17.47158 | 28359 ft | 455 kts | 312° |
| 2026-05-01 14:03 | 51.11607 | 17.43078 | 28671 ft | 458 kts | 312° |
| 2026-05-01 14:03 | 51.13500 | 17.39032 | 29288 ft | 453 kts | 313° |
| 2026-05-01 14:03 | 51.15548 | 17.35319 | 29937 ft | 441 kts | 322° |
| 2026-05-01 14:03 | 51.17946 | 17.32288 | 30110 ft | 440 kts | 332° |
| 2026-05-01 14:04 | 51.20624 | 17.29924 | 30279 ft | 439 kts | 341° |
| 2026-05-01 14:04 | 51.23476 | 17.28165 | 30545 ft | 440 kts | 344° |
| 2026-05-01 14:04 | 51.26317 | 17.26496 | 30884 ft | 439 kts | 344° |
| 2026-05-01 14:04 | 51.28251 | 17.25361 | 31175 ft | 438 kts | 344° |
| 2026-05-01 14:05 | 51.32017 | 17.23127 | 31795 ft | 434 kts | 343° |
| 2026-05-01 14:05 | 51.34832 | 17.21434 | 32252 ft | 431 kts | 343° |
| 2026-05-01 14:05 | 51.37629 | 17.19737 | 32657 ft | 430 kts | 343° |
| 2026-05-01 14:05 | 51.40419 | 17.18034 | 33037 ft | 429 kts | 343° |
| 2026-05-01 14:06 | 51.43203 | 17.16329 | 33414 ft | 427 kts | 343° |
| 2026-05-01 14:06 | 51.45976 | 17.14628 | 33814 ft | 425 kts | 343° |
| 2026-05-01 14:06 | 51.48736 | 17.12932 | 34208 ft | 424 kts | 343° |
| 2026-05-01 14:06 | 51.51472 | 17.11249 | 34545 ft | 423 kts | 343° |
| 2026-05-01 14:07 | 51.54230 | 17.09551 | 34830 ft | 422 kts | 343° |
| 2026-05-01 14:07 | 51.56972 | 17.07862 | 35032 ft | 423 kts | 342° |
| 2026-05-01 14:07 | 51.59689 | 17.06186 | 35241 ft | 424 kts | 342° |
| 2026-05-01 14:08 | 51.65223 | 17.02763 | 35850 ft | 422 kts | 342° |
| 2026-05-01 14:08 | 51.67924 | 17.01089 | 36129 ft | 421 kts | 342° |
| 2026-05-01 14:08 | 51.70661 | 16.99393 | 36380 ft | 421 kts | 342° |
| 2026-05-01 14:08 | 51.73406 | 16.97709 | 36625 ft | 421 kts | 342° |
| 2026-05-01 14:09 | 51.76143 | 16.96041 | 36903 ft | 420 kts | 342° |
| 2026-05-01 14:09 | 51.78866 | 16.94384 | 37170 ft | 420 kts | 342° |
| 2026-05-01 14:09 | 51.81607 | 16.92715 | 37413 ft | 419 kts | 342° |
| 2026-05-01 14:09 | 51.84346 | 16.91043 | 37629 ft | 420 kts | 342° |
| 2026-05-01 14:10 | 51.87082 | 16.89369 | 37853 ft | 420 kts | 342° |
| 2026-05-01 14:10 | 51.89811 | 16.87696 | 38121 ft | 419 kts | 342° |
| 2026-05-01 14:10 | 51.92533 | 16.86024 | 38325 ft | 419 kts | 342° |
| 2026-05-01 14:11 | 51.97986 | 16.82669 | 38311 ft | 422 kts | 341° |
| 2026-05-01 14:11 | 52.06179 | 16.77606 | 38321 ft | 418 kts | 341° |
| 2026-05-01 14:12 | 52.11607 | 16.74243 | 38321 ft | 416 kts | 341° |
| 2026-05-01 14:12 | 52.17014 | 16.70883 | 38322 ft | 416 kts | 341° |
| 2026-05-01 14:13 | 52.21504 | 16.68087 | 38319 ft | 415 kts | 341° |
| 2026-05-01 14:13 | 52.27816 | 16.64146 | 38320 ft | 416 kts | 341° |
| 2026-05-01 14:14 | 52.33238 | 16.60752 | 38325 ft | 417 kts | 341° |
| 2026-05-01 14:14 | 52.38633 | 16.57365 | 38301 ft | 418 kts | 341° |
| 2026-05-01 14:15 | 52.44076 | 16.53939 | 38318 ft | 419 kts | 341° |
| 2026-05-01 14:15 | 52.49534 | 16.50494 | 38325 ft | 421 kts | 341° |
| 2026-05-01 14:16 | 52.55011 | 16.47028 | 38323 ft | 422 kts | 341° |
| 2026-05-01 14:16 | 52.60496 | 16.43547 | 38320 ft | 423 kts | 341° |
| 2026-05-01 14:17 | 52.66005 | 16.40042 | 38322 ft | 424 kts | 341° |
| 2026-05-01 14:17 | 52.71521 | 16.36523 | 38319 ft | 425 kts | 341° |
| 2026-05-01 14:18 | 52.76998 | 16.33019 | 38317 ft | 425 kts | 341° |
| 2026-05-01 14:18 | 52.81622 | 16.30054 | 38314 ft | 424 kts | 340° |
| 2026-05-01 14:19 | 52.88023 | 16.25938 | 38318 ft | 424 kts | 340° |
| 2026-05-01 14:19 | 52.93076 | 16.22679 | 38315 ft | 424 kts | 340° |
| 2026-05-01 14:20 | 53.01319 | 16.17345 | 38323 ft | 423 kts | 340° |
| 2026-05-01 14:21 | 53.06809 | 16.13780 | 38328 ft | 423 kts | 340° |
| 2026-05-01 14:21 | 53.12260 | 16.10232 | 38321 ft | 424 kts | 340° |
| 2026-05-01 14:22 | 53.20504 | 16.04846 | 38326 ft | 424 kts | 341° |
| 2026-05-01 14:22 | 53.25993 | 16.01248 | 38325 ft | 424 kts | 340° |
| 2026-05-01 14:23 | 53.31488 | 15.97636 | 38339 ft | 424 kts | 340° |
| 2026-05-01 14:23 | 53.36950 | 15.94036 | 38338 ft | 425 kts | 340° |
| 2026-05-01 14:24 | 53.42474 | 15.90385 | 38337 ft | 426 kts | 340° |
| 2026-05-01 14:24 | 53.47991 | 15.86728 | 38345 ft | 426 kts | 340° |
| 2026-05-01 14:25 | 53.53450 | 15.83099 | 38344 ft | 427 kts | 340° |
| 2026-05-01 14:25 | 53.58972 | 15.79418 | 38347 ft | 427 kts | 340° |
| 2026-05-01 14:26 | 53.66317 | 15.74506 | 38332 ft | 427 kts | 340° |
| 2026-05-01 14:27 | 53.72733 | 15.70200 | 38359 ft | 427 kts | 340° |
| 2026-05-01 14:27 | 53.77364 | 15.67083 | 38358 ft | 427 kts | 340° |
| 2026-05-01 14:28 | 53.85541 | 15.61562 | 38358 ft | 427 kts | 340° |
| 2026-05-01 14:28 | 53.91053 | 15.57827 | 38358 ft | 427 kts | 340° |
| 2026-05-01 14:29 | 53.96563 | 15.54082 | 38365 ft | 426 kts | 340° |
| 2026-05-01 14:30 | 54.07590 | 15.46557 | 38367 ft | 426 kts | 340° |
| 2026-05-01 14:31 | 54.15834 | 15.40902 | 38367 ft | 425 kts | 339° |
| 2026-05-01 14:31 | 54.21285 | 15.37150 | 38365 ft | 425 kts | 339° |
| 2026-05-01 14:32 | 54.26768 | 15.33365 | 38366 ft | 424 kts | 339° |
| 2026-05-01 14:32 | 54.32247 | 15.29571 | 38367 ft | 424 kts | 339° |
| 2026-05-01 14:33 | 54.37712 | 15.25777 | 38363 ft | 424 kts | 339° |
| 2026-05-01 14:33 | 54.42631 | 15.22352 | 38358 ft | 423 kts | 339° |
| 2026-05-01 14:34 | 54.48092 | 15.18539 | 38356 ft | 423 kts | 339° |
| 2026-05-01 14:34 | 54.53522 | 15.14738 | 38343 ft | 424 kts | 339° |
| 2026-05-01 14:35 | 54.58985 | 15.10901 | 38353 ft | 425 kts | 339° |
| 2026-05-01 14:35 | 54.64467 | 15.07041 | 38352 ft | 426 kts | 339° |
| 2026-05-01 14:36 | 54.69961 | 15.03160 | 38356 ft | 428 kts | 339° |
| 2026-05-01 14:36 | 54.75477 | 14.99251 | 38347 ft | 429 kts | 339° |
| 2026-05-01 14:37 | 54.81012 | 14.95320 | 38345 ft | 430 kts | 339° |
| 2026-05-01 14:37 | 54.86513 | 14.91185 | 38349 ft | 431 kts | 336° |
| 2026-05-01 14:38 | 54.91948 | 14.86742 | 38346 ft | 432 kts | 335° |
| 2026-05-01 14:38 | 54.97381 | 14.82281 | 38346 ft | 432 kts | 335° |
| 2026-05-01 14:39 | 55.02825 | 14.77842 | 38350 ft | 432 kts | 336° |
| 2026-05-01 14:39 | 55.08262 | 14.73419 | 38347 ft | 431 kts | 335° |
| 2026-05-01 14:40 | 55.13667 | 14.69015 | 38349 ft | 431 kts | 335° |
| 2026-05-01 14:40 | 55.19099 | 14.64574 | 38344 ft | 430 kts | 335° |
| 2026-05-01 14:41 | 55.24523 | 14.60125 | 38335 ft | 430 kts | 335° |
| 2026-05-01 14:41 | 55.29937 | 14.55671 | 38335 ft | 429 kts | 335° |
| 2026-05-01 14:42 | 55.35345 | 14.51208 | 38319 ft | 429 kts | 335° |
| 2026-05-01 14:42 | 55.40747 | 14.46737 | 38323 ft | 429 kts | 335° |
| 2026-05-01 14:43 | 55.46150 | 14.42251 | 38327 ft | 429 kts | 335° |
| 2026-05-01 14:43 | 55.51557 | 14.37749 | 38322 ft | 430 kts | 335° |
| 2026-05-01 14:44 | 55.56973 | 14.33225 | 38324 ft | 431 kts | 335° |
| 2026-05-01 14:44 | 55.65075 | 14.26431 | 38317 ft | 432 kts | 335° |
| 2026-05-01 14:45 | 55.73234 | 14.19558 | 38315 ft | 433 kts | 335° |
| 2026-05-01 14:46 | 55.78675 | 14.14956 | 38326 ft | 433 kts | 334° |
| 2026-05-01 14:46 | 55.86820 | 14.08042 | 38315 ft | 431 kts | 334° |
| 2026-05-01 14:47 | 55.92181 | 14.03445 | 38325 ft | 430 kts | 334° |
| 2026-05-01 14:48 | 56.00241 | 13.96474 | 38312 ft | 428 kts | 334° |
| 2026-05-01 14:48 | 56.08273 | 13.89501 | 38332 ft | 427 kts | 334° |
| 2026-05-01 14:49 | 56.13662 | 13.84805 | 37390 ft | 430 kts | 333° |
| 2026-05-01 14:49 | 56.18991 | 13.80148 | 36220 ft | 427 kts | 333° |
| 2026-05-01 14:50 | 56.22573 | 13.77010 | 35355 ft | 429 kts | 333° |
| 2026-05-01 14:50 | 56.29749 | 13.70701 | 33585 ft | 432 kts | 332° |
| 2026-05-01 14:51 | 56.32429 | 13.68339 | 33064 ft | 428 kts | 332° |
| 2026-05-01 14:51 | 56.37733 | 13.63654 | 32108 ft | 420 kts | 332° |
| 2026-05-01 14:52 | 56.42931 | 13.59047 | 31167 ft | 412 kts | 332° |
| 2026-05-01 14:52 | 56.45496 | 13.56768 | 30719 ft | 409 kts | 332° |
| 2026-05-01 14:52 | 56.50564 | 13.52255 | 29698 ft | 402 kts | 332° |
| 2026-05-01 14:53 | 56.53055 | 13.50032 | 29240 ft | 397 kts | 332° |
| 2026-05-01 14:53 | 56.55520 | 13.47829 | 28766 ft | 393 kts | 332° |
| 2026-05-01 14:53 | 56.57957 | 13.45648 | 28299 ft | 389 kts | 332° |
| 2026-05-01 14:53 | 56.60381 | 13.43476 | 27819 ft | 386 kts | 332° |
| 2026-05-01 14:54 | 56.62741 | 13.41357 | 27361 ft | 383 kts | 332° |
| 2026-05-01 14:54 | 56.65127 | 13.39212 | 26902 ft | 381 kts | 332° |
| 2026-05-01 14:54 | 56.67496 | 13.37080 | 26437 ft | 378 kts | 332° |
| 2026-05-01 14:54 | 56.69843 | 13.34964 | 26008 ft | 376 kts | 331° |
| 2026-05-01 14:55 | 56.72176 | 13.32859 | 25565 ft | 374 kts | 331° |
| 2026-05-01 14:55 | 56.74468 | 13.30668 | 25081 ft | 372 kts | 328° |
| 2026-05-01 14:55 | 56.76708 | 13.28324 | 24641 ft | 370 kts | 327° |
| 2026-05-01 14:55 | 56.78921 | 13.25937 | 24185 ft | 368 kts | 327° |
| 2026-05-01 14:56 | 56.81121 | 13.23554 | 23701 ft | 367 kts | 327° |
| 2026-05-01 14:56 | 56.83322 | 13.21176 | 23199 ft | 365 kts | 327° |
| 2026-05-01 14:56 | 56.85503 | 13.18830 | 22752 ft | 362 kts | 327° |
| 2026-05-01 14:56 | 56.87671 | 13.16504 | 22311 ft | 359 kts | 327° |
| 2026-05-01 14:57 | 56.89787 | 13.14238 | 21890 ft | 356 kts | 327° |
| 2026-05-01 14:57 | 56.94035 | 13.09685 | 21022 ft | 351 kts | 327° |
| 2026-05-01 14:57 | 56.96134 | 13.07431 | 20596 ft | 349 kts | 327° |
| 2026-05-01 14:58 | 56.98223 | 13.05186 | 20191 ft | 347 kts | 327° |
| 2026-05-01 14:58 | 57.00293 | 13.02958 | 19776 ft | 345 kts | 326° |
| 2026-05-01 14:58 | 57.02365 | 13.00723 | 19359 ft | 344 kts | 326° |
| 2026-05-01 14:58 | 57.04431 | 12.98495 | 18932 ft | 343 kts | 326° |
| 2026-05-01 14:59 | 57.06479 | 12.96282 | 18503 ft | 341 kts | 326° |
| 2026-05-01 14:59 | 57.08529 | 12.94065 | 18028 ft | 340 kts | 326° |
| 2026-05-01 14:59 | 57.10672 | 12.92219 | 17591 ft | 342 kts | 340° |
| 2026-05-01 14:59 | 57.12974 | 12.91132 | 17215 ft | 340 kts | 343° |
| 2026-05-01 15:00 | 57.17561 | 12.89175 | 16387 ft | 336 kts | 342° |
| 2026-05-01 15:00 | 57.19811 | 12.88192 | 15985 ft | 334 kts | 342° |
| 2026-05-01 15:00 | 57.22061 | 12.87186 | 15586 ft | 332 kts | 342° |
| 2026-05-01 15:01 | 57.24300 | 12.86170 | 15183 ft | 330 kts | 341° |
| 2026-05-01 15:01 | 57.26529 | 12.85150 | 14788 ft | 329 kts | 341° |
| 2026-05-01 15:01 | 57.28745 | 12.84131 | 14396 ft | 328 kts | 341° |
| 2026-05-01 15:01 | 57.30954 | 12.83112 | 13979 ft | 327 kts | 341° |
| 2026-05-01 15:02 | 57.33161 | 12.82093 | 13533 ft | 325 kts | 341° |
| 2026-05-01 15:02 | 57.33900 | 12.81752 | 13388 ft | 325 kts | 341° |
| 2026-05-01 15:02 | 57.37496 | 12.80092 | 12786 ft | 319 kts | 341° |
| 2026-05-01 15:02 | 57.39643 | 12.79102 | 12387 ft | 317 kts | 341° |
| 2026-05-01 15:03 | 57.41776 | 12.78116 | 12008 ft | 315 kts | 341° |
| 2026-05-01 15:03 | 57.43898 | 12.77133 | 11620 ft | 314 kts | 341° |
| 2026-05-01 15:03 | 57.45993 | 12.76164 | 11456 ft | 305 kts | 341° |
| 2026-05-01 15:03 | 57.47988 | 12.75243 | 11366 ft | 294 kts | 340° |
| 2026-05-01 15:04 | 57.49930 | 12.74343 | 11296 ft | 283 kts | 340° |
| 2026-05-01 15:04 | 57.51818 | 12.73464 | 11118 ft | 277 kts | 340° |
| 2026-05-01 15:04 | 57.53687 | 12.72592 | 10792 ft | 277 kts | 340° |
| 2026-05-01 15:04 | 57.55553 | 12.71719 | 10488 ft | 276 kts | 340° |
| 2026-05-01 15:05 | 57.57414 | 12.70850 | 10264 ft | 274 kts | 339° |
| 2026-05-01 15:05 | 57.59277 | 12.69982 | 10000 ft | 271 kts | 339° |
| 2026-05-01 15:05 | 57.61086 | 12.69135 | 9676 ft | 271 kts | 339° |
| 2026-05-01 15:05 | 57.62915 | 12.68279 | 9376 ft | 271 kts | 340° |
| 2026-05-01 15:06 | 57.64732 | 12.67411 | 9070 ft | 268 kts | 338° |
| 2026-05-01 15:06 | 57.66492 | 12.66284 | 8727 ft | 267 kts | 333° |
| 2026-05-01 15:06 | 57.68227 | 12.65060 | 8414 ft | 266 kts | 333° |
| 2026-05-01 15:06 | 57.69956 | 12.63851 | 8114 ft | 265 kts | 334° |
| 2026-05-01 15:07 | 57.71684 | 12.62655 | 7831 ft | 264 kts | 334° |
| 2026-05-01 15:07 | 57.73400 | 12.61473 | 7556 ft | 262 kts | 334° |
| 2026-05-01 15:07 | 57.75105 | 12.60301 | 7318 ft | 260 kts | 334° |
| 2026-05-01 15:07 | 57.76776 | 12.59159 | 7219 ft | 249 kts | 334° |
| 2026-05-01 15:08 | 57.78380 | 12.58062 | 6950 ft | 242 kts | 334° |
| 2026-05-01 15:08 | 57.79858 | 12.56717 | 6787 ft | 229 kts | 321° |
| 2026-05-01 15:08 | 57.81121 | 12.55136 | 6732 ft | 214 kts | 320° |
| 2026-05-01 15:08 | 57.82236 | 12.53489 | 6621 ft | 194 kts | 302° |
| 2026-05-01 15:09 | 57.82745 | 12.51340 | 6517 ft | 172 kts | 277° |
| 2026-05-01 15:09 | 57.82710 | 12.49209 | 6352 ft | 159 kts | 256° |
| 2026-05-01 15:09 | 57.82287 | 12.47326 | 6098 ft | 155 kts | 239° |
| 2026-05-01 15:09 | 57.81551 | 12.45824 | 5691 ft | 158 kts | 227° |
| 2026-05-01 15:10 | 57.80741 | 12.44428 | 5289 ft | 158 kts | 227° |
| 2026-05-01 15:10 | 57.79219 | 12.41934 | 4599 ft | 147 kts | 228° |
| 2026-05-01 15:10 | 57.78511 | 12.40639 | 4303 ft | 136 kts | 230° |
| 2026-05-01 15:11 | 57.77806 | 12.39443 | 3870 ft | 143 kts | 226° |
| 2026-05-01 15:11 | 57.76231 | 12.37369 | 3521 ft | 131 kts | 216° |
| 2026-05-01 15:11 | 57.75485 | 12.36614 | 3381 ft | 118 kts | 218° |
| 2026-05-01 15:12 | 57.74760 | 12.35830 | 2956 ft | 122 kts | 217° |
| 2026-05-01 15:12 | 57.73173 | 12.34343 | 2394 ft | 125 kts | 213° |
| 2026-05-01 15:12 | 57.72392 | 12.33626 | 2180 ft | 126 kts | 215° |
| 2026-05-01 15:13 | 57.69986 | 12.31367 | 1455 ft | 135 kts | 211° |
| 2026-05-01 15:14 | 57.68334 | 12.29879 | 769 ft | 123 kts | 211° |
| 2026-05-01 15:14 | 57.67601 | 12.29215 | 548 ft | 114 kts | 214° |
| 2026-05-01 15:14 | 57.66742 | 12.28386 | 523 ft | 27 kts | 205° |
| 2026-05-01 15:15 | 57.66664 | 12.28429 | 523 ft | 0 kts | 53° |
| 2026-05-01 15:18 | 57.66668 | 12.28439 | 523 ft | 1 kts | 51° |
| 2026-05-01 15:18 | 57.66674 | 12.28453 | 523 ft | 2 kts | 49° |
| 2026-05-01 15:19 | 57.66704 | 12.28528 | 523 ft | 3 kts | 57° |
| 2026-05-01 15:19 | 57.66724 | 12.28591 | 523 ft | 3 kts | 59° |
| 2026-05-01 15:19 | 57.66735 | 12.28623 | 523 ft | 3 kts | 58° |
| 2026-05-01 15:20 | 57.66758 | 12.28689 | 524 ft | 3 kts | 55° |
| 2026-05-01 15:20 | 57.66772 | 12.28730 | 524 ft | 5 kts | 58° |
| 2026-05-01 15:20 | 57.66795 | 12.28784 | 524 ft | 5 kts | 43° |
| 2026-05-01 15:21 | 57.66821 | 12.28832 | 525 ft | 5 kts | 57° |
| 2026-05-01 15:21 | 57.66823 | 12.28907 | 525 ft | 7 kts | 104° |
| 2026-05-01 15:21 | 57.66801 | 12.28996 | 525 ft | 8 kts | 117° |
| 2026-05-01 15:21 | 57.66778 | 12.29087 | 525 ft | 8 kts | 115° |
| 2026-05-01 15:22 | 57.66738 | 12.29132 | 525 ft | 0 kts | 210° |
| 2026-05-01 15:22 | 57.66733 | 12.29128 | 525 ft | 1 kts | 207° |
| 2026-05-01 15:22 | 57.66724 | 12.29119 | 525 ft | 2 kts | 206° |
| 2026-05-01 15:23 | 57.66711 | 12.29107 | 525 ft | 2 kts | 205° |
| 2026-05-01 15:23 | 57.66693 | 12.29092 | 524 ft | 3 kts | 205° |
| 2026-05-01 15:23 | 57.66671 | 12.29072 | 524 ft | 4 kts | 206° |
| 2026-05-01 15:23 | 57.66645 | 12.29048 | 524 ft | 5 kts | 206° |
| 2026-05-01 15:24 | 57.66615 | 12.29021 | 524 ft | 5 kts | 206° |
| 2026-05-01 15:24 | 57.66582 | 12.28991 | 523 ft | 6 kts | 206° |
| 2026-05-01 15:24 | 57.66546 | 12.28958 | 523 ft | 6 kts | 200° |
| 2026-05-01 15:24 | 57.66504 | 12.28967 | 522 ft | 6 kts | 174° |
| 2026-05-01 15:25 | 57.66462 | 12.28940 | 522 ft | 7 kts | 205° |
| 2026-05-01 15:25 | 57.66418 | 12.28901 | 522 ft | 7 kts | 206° |
| 2026-05-01 15:25 | 57.66377 | 12.28886 | 521 ft | 6 kts | 150° |
| 2026-05-01 15:25 | 57.66356 | 12.28951 | 521 ft | 6 kts | 118° |
| 2026-05-01 15:26 | 57.66348 | 12.28982 | 521 ft | 0 kts | 116° |